Time;durP1;ratioP1;P1;durP2;ratioP2;P2;SDS_P1;SDS_P2;PMS_P1;PMS_P2;Temp;Humidity;BMP_temperature;BMP_pressure;BME280_temperature;BME280_humidity;BME280_pressure;Samples;Min_cycle;Max_cycle;Signal;HPM_P1;HPM_P2
2023/11/23 00:00:43;;;;;;;2.73;2.27;;;21.00;57.40;;;;;;5010535;28;20183;-69
2023/11/23 00:03:09;;;;;;;3.47;2.57;;;21.00;57.40;;;;;;5010477;28;20184;-68
2023/11/23 00:05:35;;;;;;;2.97;2.27;;;21.00;57.40;;;;;;4992553;28;20535;-70
2023/11/23 00:08:01;;;;;;;2.33;2.00;;;21.00;57.40;;;;;;5010337;28;20200;-68
2023/11/23 00:10:28;;;;;;;2.37;2.17;;;21.00;57.40;;;;;;5010429;28;20180;-69
2023/11/23 00:12:53;;;;;;;2.50;1.77;;;21.00;57.40;;;;;;5012788;28;20164;-69
2023/11/23 00:15:19;;;;;;;2.70;2.30;;;21.00;57.40;;;;;;5014311;28;20422;-69
2023/11/23 00:17:45;;;;;;;2.83;2.40;;;21.00;57.40;;;;;;5014244;28;20223;-69
2023/11/23 00:20:10;;;;;;;2.47;1.50;;;21.00;57.40;;;;;;5014172;28;20302;-70
2023/11/23 00:22:36;;;;;;;2.77;2.40;;;21.00;57.40;;;;;;5014298;28;20184;-69
2023/11/23 00:25:04;;;;;;;1.70;1.60;;;21.00;57.40;;;;;;5014287;28;20176;-70
2023/11/23 00:27:31;;;;;;;2.20;1.90;;;21.00;57.40;;;;;;4996240;28;20477;-68
2023/11/23 00:29:57;;;;;;;2.10;1.90;;;21.00;57.40;;;;;;5014280;28;20465;-69
2023/11/23 00:32:23;;;;;;;2.00;1.80;;;21.00;57.40;;;;;;4996538;28;20796;-69
2023/11/23 00:34:50;;;;;;;2.23;1.93;;;21.00;57.40;;;;;;5014079;28;20187;-68
2023/11/23 00:37:16;;;;;;;2.13;1.93;;;20.90;57.30;;;;;;5014187;28;20721;-69
2023/11/23 00:39:42;;;;;;;2.53;2.00;;;21.00;57.40;;;;;;5013764;28;20419;-69
2023/11/23 00:42:08;;;;;;;2.30;1.70;;;20.90;57.30;;;;;;4996176;28;20184;-69
2023/11/23 00:44:33;;;;;;;2.73;1.83;;;20.90;57.30;;;;;;5013820;28;20423;-69
2023/11/23 00:46:59;;;;;;;1.57;1.47;;;20.90;57.30;;;;;;5014059;28;20211;-69
2023/11/23 00:49:24;;;;;;;1.90;1.70;;;20.90;57.30;;;;;;5013660;28;20176;-68
2023/11/23 00:51:50;;;;;;;2.27;1.80;;;20.90;57.40;;;;;;5013595;28;20183;-69
2023/11/23 00:54:16;;;;;;;3.17;1.90;;;20.90;57.30;;;;;;5013695;28;20180;-69
2023/11/23 00:56:41;;;;;;;2.27;1.73;;;20.90;57.40;;;;;;5013651;28;20172;-69
2023/11/23 00:59:07;;;;;;;2.40;1.93;;;20.90;57.30;;;;;;5013581;28;20196;-67
2023/11/23 01:01:32;;;;;;;2.87;1.83;;;20.90;57.40;;;;;;5013718;28;20208;-69
2023/11/23 01:03:58;;;;;;;2.37;1.97;;;20.90;57.30;;;;;;5013426;28;20264;-69
2023/11/23 01:06:24;;;;;;;3.03;1.97;;;20.90;57.30;;;;;;5013156;28;20663;-68
2023/11/23 01:08:49;;;;;;;3.30;1.87;;;20.90;57.40;;;;;;5013359;28;20230;-68
2023/11/23 01:11:15;;;;;;;2.03;1.80;;;20.90;57.40;;;;;;5013360;28;20697;-68
2023/11/23 01:13:41;;;;;;;2.20;1.80;;;20.90;57.40;;;;;;5013258;28;20176;-69
2023/11/23 01:16:08;;;;;;;2.23;1.80;;;20.90;57.40;;;;;;5013463;28;20195;-68
2023/11/23 01:18:33;;;;;;;2.23;2.03;;;20.90;57.40;;;;;;5013037;28;20534;-69
2023/11/23 01:20:59;;;;;;;3.00;2.10;;;20.90;57.40;;;;;;5013100;28;20498;-69
2023/11/23 01:23:25;;;;;;;2.30;1.90;;;20.90;57.40;;;;;;5013008;28;20260;-69
2023/11/23 01:25:52;;;;;;;2.67;2.30;;;20.90;57.40;;;;;;5012966;28;20243;-69
2023/11/23 01:28:18;;;;;;;2.60;2.10;;;20.90;57.40;;;;;;5012821;28;20435;-69
2023/11/23 01:30:44;;;;;;;3.07;2.83;;;20.90;57.40;;;;;;5012860;28;20802;-69
2023/11/23 01:33:10;;;;;;;2.07;1.80;;;20.90;57.40;;;;;;5012822;28;20415;-68
2023/11/23 01:35:36;;;;;;;2.37;1.70;;;20.90;57.40;;;;;;5013146;28;20427;-69
2023/11/23 01:38:02;;;;;;;2.20;1.90;;;20.80;57.30;;;;;;5012562;28;20441;-69
2023/11/23 01:40:27;;;;;;;2.10;1.90;;;20.80;57.30;;;;;;5012529;28;20180;-69
2023/11/23 01:42:53;;;;;;;1.90;1.70;;;20.80;57.30;;;;;;5012498;28;20183;-69
2023/11/23 01:45:18;;;;;;;2.30;2.10;;;20.80;57.30;;;;;;5012636;28;20177;-68
2023/11/23 01:47:45;;;;;;;2.10;1.90;;;20.80;57.40;;;;;;5012384;28;20208;-69
2023/11/23 01:50:13;;;;;;;2.50;1.90;;;20.80;57.40;;;;;;5012614;28;20177;-69
2023/11/23 01:52:39;;;;;;;1.83;1.50;;;20.80;57.40;;;;;;5012541;28;20418;-69
2023/11/23 01:55:05;;;;;;;3.00;1.90;;;20.80;57.40;;;;;;5012297;28;20420;-69
2023/11/23 01:57:34;;;;;;;3.03;2.13;;;20.80;57.40;;;;;;5011110;28;20200;-68
2023/11/23 02:00:01;;;;;;;2.10;1.90;;;20.80;57.40;;;;;;5011687;28;20531;-69
2023/11/23 02:02:28;;;;;;;1.90;1.60;;;20.80;57.40;;;;;;5012295;28;20421;-68
2023/11/23 02:04:58;;;;;;;2.00;1.60;;;20.80;57.40;;;;;;5012154;28;20922;-69
2023/11/23 02:07:23;;;;;;;1.90;1.53;;;20.80;57.40;;;;;;4994242;28;20841;-69
2023/11/23 02:09:49;;;;;;;3.23;1.73;;;20.80;57.40;;;;;;5012059;28;20415;-69
2023/11/23 02:12:16;;;;;;;2.30;2.10;;;20.80;57.40;;;;;;5012033;28;20254;-69
2023/11/23 02:14:42;;;;;;;2.20;1.50;;;20.80;57.50;;;;;;5011998;28;20554;-68
2023/11/23 02:17:18;;;;;;;1.90;1.67;;;20.80;57.50;;;;;;5011864;28;20477;-69
2023/11/23 02:19:46;;;;;;;2.43;2.10;;;20.80;57.50;;;;;;5011901;28;20811;-69
2023/11/23 02:22:12;;;;;;;1.73;1.63;;;20.80;57.50;;;;;;5011751;28;20505;-69
2023/11/23 02:24:41;;;;;;;2.10;1.77;;;20.80;57.50;;;;;;5011584;28;20518;-69
2023/11/23 02:27:07;;;;;;;2.70;1.70;;;20.80;57.50;;;;;;5011603;28;20204;-70
2023/11/23 02:29:34;;;;;;;2.00;1.80;;;20.80;57.50;;;;;;5011773;28;20510;-69
2023/11/23 02:32:07;;;;;;;2.07;1.70;;;20.80;57.50;;;;;;5011610;28;20255;-69
2023/11/23 02:34:34;;;;;;;2.30;1.83;;;20.80;57.50;;;;;;5011077;28;20388;-69
2023/11/23 02:36:59;;;;;;;2.80;1.80;;;20.80;57.50;;;;;;5011537;28;20437;-69
2023/11/23 02:39:25;;;;;;;1.63;1.50;;;20.70;57.40;;;;;;5011162;28;20415;-69
2023/11/23 02:41:51;;;;;;;3.13;2.07;;;20.80;57.50;;;;;;5011422;28;20188;-68
2023/11/23 02:44:17;;;;;;;2.07;1.80;;;20.70;57.40;;;;;;5011413;28;20189;-69
2023/11/23 02:46:42;;;;;;;1.87;1.67;;;20.70;57.40;;;;;;5011352;28;20553;-67
2023/11/23 02:49:09;;;;;;;2.33;1.87;;;20.70;57.40;;;;;;5011325;28;20173;-69
2023/11/23 02:51:35;;;;;;;2.43;1.93;;;20.70;57.40;;;;;;5011368;28;20173;-67
2023/11/23 02:54:01;;;;;;;2.40;2.00;;;20.70;57.40;;;;;;5011420;28;20920;-68
2023/11/23 02:56:26;;;;;;;2.17;1.63;;;20.80;57.50;;;;;;5011395;28;20219;-68
2023/11/23 02:58:53;;;;;;;1.80;1.63;;;20.70;57.40;;;;;;5011114;28;20208;-68
2023/11/23 03:01:21;;;;;;;1.93;1.60;;;20.70;57.40;;;;;;5011122;28;20176;-68
2023/11/23 03:03:47;;;;;;;2.90;1.70;;;20.70;57.40;;;;;;5011178;28;20809;-69
2023/11/23 03:06:13;;;;;;;2.20;1.80;;;20.70;57.40;;;;;;5011024;28;20459;-68
2023/11/23 03:08:38;;;;;;;2.77;1.83;;;20.70;57.50;;;;;;4993109;28;20446;-69
2023/11/23 03:11:04;;;;;;;3.00;1.90;;;20.70;57.40;;;;;;5010923;28;20184;-68
2023/11/23 03:13:30;;;;;;;1.90;1.60;;;20.70;57.50;;;;;;5010945;28;20175;-69
2023/11/23 03:15:56;;;;;;;2.50;1.90;;;20.70;57.40;;;;;;5010753;28;20459;-69
2023/11/23 03:18:21;;;;;;;2.00;1.70;;;20.70;57.40;;;;;;5010848;28;20196;-69
2023/11/23 03:20:47;;;;;;;2.30;1.90;;;20.70;58.00;;;;;;5010798;28;20172;-69
2023/11/23 03:23:12;;;;;;;2.00;1.70;;;20.70;57.40;;;;;;5010885;28;20207;-69
2023/11/23 03:25:38;;;;;;;2.10;1.90;;;20.70;57.50;;;;;;5010943;28;20880;-69
2023/11/23 03:28:06;;;;;;;1.93;1.73;;;20.70;57.50;;;;;;5010751;28;20196;-68
2023/11/23 03:30:32;;;;;;;2.40;1.70;;;20.70;57.50;;;;;;5010730;28;20548;-69
2023/11/23 03:32:58;;;;;;;2.00;1.80;;;20.70;57.50;;;;;;5010748;28;20917;-68
2023/11/23 03:35:24;;;;;;;2.07;1.87;;;20.70;57.50;;;;;;5010738;28;20435;-69
2023/11/23 03:37:49;;;;;;;1.80;1.53;;;20.70;57.50;;;;;;5010550;28;20196;-68
2023/11/23 03:40:15;;;;;;;1.80;1.70;;;20.60;57.40;;;;;;5010647;28;20176;-69
2023/11/23 03:42:40;;;;;;;2.17;1.60;;;20.60;57.40;;;;;;5010900;28;20212;-70
2023/11/23 03:45:06;;;;;;;2.40;2.00;;;20.60;57.40;;;;;;4992742;28;20724;-69
2023/11/23 03:47:32;;;;;;;2.37;2.07;;;20.60;57.40;;;;;;5009860;28;20208;-69
2023/11/23 03:49:57;;;;;;;1.90;1.70;;;20.60;57.40;;;;;;5010435;28;20638;-68
2023/11/23 03:52:23;;;;;;;1.87;1.53;;;20.60;57.50;;;;;;5011011;28;20720;-69
2023/11/23 03:54:49;;;;;;;1.50;1.40;;;20.60;57.50;;;;;;5010417;28;20176;-69
2023/11/23 03:57:14;;;;;;;2.43;2.07;;;20.60;57.50;;;;;;4992930;28;20682;-69
2023/11/23 03:59:40;;;;;;;1.50;1.37;;;20.70;57.60;;;;;;5010344;28;20271;-69
2023/11/23 04:02:07;;;;;;;2.50;1.50;;;20.60;57.50;;;;;;5010347;28;20172;-69
2023/11/23 04:04:32;;;;;;;2.77;2.10;;;20.60;57.50;;;;;;5010302;28;20263;-69
2023/11/23 04:06:58;;;;;;;2.17;1.63;;;20.60;57.50;;;;;;5010240;28;21060;-68
2023/11/23 04:09:24;;;;;;;1.70;1.60;;;20.60;57.50;;;;;;5010269;28;20192;-69
2023/11/23 04:11:50;;;;;;;2.13;1.77;;;20.60;57.50;;;;;;5010475;28;20180;-69
2023/11/23 04:14:15;;;;;;;1.40;1.30;;;20.60;57.50;;;;;;5010296;28;21011;-68
2023/11/23 04:16:41;;;;;;;1.80;1.60;;;20.60;57.50;;;;;;5010183;28;20698;-69
2023/11/23 04:19:07;;;;;;;2.20;1.70;;;20.60;57.50;;;;;;5010287;28;20177;-69
2023/11/23 04:21:32;;;;;;;2.23;1.80;;;20.60;57.50;;;;;;5010187;28;20587;-69
2023/11/23 04:23:58;;;;;;;1.80;1.60;;;20.60;57.50;;;;;;5010175;28;20180;-69
2023/11/23 04:26:23;;;;;;;1.73;1.60;;;20.60;57.50;;;;;;5009997;28;20193;-70
2023/11/23 04:28:50;;;;;;;1.63;1.30;;;20.60;57.50;;;;;;5010080;28;20180;-69
2023/11/23 04:31:16;;;;;;;2.63;1.83;;;20.60;57.50;;;;;;5010133;28;20172;-69
2023/11/23 04:33:42;;;;;;;2.10;1.70;;;20.60;57.50;;;;;;5010022;28;20760;-70
2023/11/23 04:36:07;;;;;;;1.30;1.20;;;20.60;57.50;;;;;;5010006;28;20655;-68
2023/11/23 04:38:33;;;;;;;2.10;1.90;;;20.50;57.40;;;;;;5009865;28;20302;-69
2023/11/23 04:40:58;;;;;;;1.87;1.67;;;20.50;57.50;;;;;;5009975;28;20188;-69
2023/11/23 04:43:25;;;;;;;1.50;1.40;;;20.50;57.50;;;;;;5010018;28;20218;-68
2023/11/23 04:45:50;;;;;;;2.00;1.50;;;20.50;57.50;;;;;;5009928;28;20965;-69
2023/11/23 04:48:16;;;;;;;1.80;1.70;;;20.50;57.50;;;;;;5009968;28;20192;-69
2023/11/23 04:50:42;;;;;;;2.50;1.60;;;20.50;57.50;;;;;;5009963;28;20610;-69
2023/11/23 04:53:07;;;;;;;2.03;1.80;;;20.50;57.50;;;;;;5009932;28;20208;-69
2023/11/23 04:55:33;;;;;;;1.50;1.10;;;20.50;57.50;;;;;;5010055;28;20750;-68
2023/11/23 04:57:59;;;;;;;1.57;1.47;;;20.50;57.50;;;;;;5010611;28;20226;-69
2023/11/23 05:00:24;;;;;;;1.97;1.80;;;20.50;57.50;;;;;;5013595;28;20251;-69
2023/11/23 05:02:53;;;;;;;1.70;1.60;;;20.50;57.50;;;;;;5013491;28;20161;-70
2023/11/23 05:05:20;;;;;;;2.00;1.70;;;20.50;57.50;;;;;;5013382;28;20260;-69
2023/11/23 05:07:45;;;;;;;2.00;1.80;;;20.50;57.50;;;;;;5013193;28;21026;-68
2023/11/23 05:10:11;;;;;;;2.00;1.70;;;20.50;57.50;;;;;;5013747;28;20506;-69
2023/11/23 05:12:37;;;;;;;1.83;1.60;;;20.50;57.50;;;;;;5013135;28;20721;-68
2023/11/23 05:15:04;;;;;;;1.93;1.70;;;20.50;57.50;;;;;;5013186;28;20191;-68
2023/11/23 05:17:30;;;;;;;1.60;1.37;;;20.50;57.50;;;;;;5012950;28;20814;-69
2023/11/23 05:19:56;;;;;;;2.07;1.70;;;20.50;57.50;;;;;;5013257;28;20510;-68
2023/11/23 05:22:22;;;;;;;1.83;1.50;;;20.50;57.50;;;;;;5012986;28;21004;-68
2023/11/23 05:24:47;;;;;;;1.97;1.70;;;20.50;57.50;;;;;;5012943;28;20172;-68
2023/11/23 05:27:13;;;;;;;1.50;1.40;;;20.50;58.10;;;;;;4995012;28;20482;-66
2023/11/23 05:29:39;;;;;;;2.00;1.57;;;20.50;57.60;;;;;;5012845;28;20168;-69
2023/11/23 05:32:05;;;;;;;1.80;1.60;;;20.40;57.50;;;;;;5012835;28;20177;-68
2023/11/23 05:34:30;;;;;;;1.57;1.30;;;20.40;57.50;;;;;;5012706;28;20208;-69
2023/11/23 05:36:56;;;;;;;1.53;1.43;;;20.40;57.50;;;;;;5012640;28;20463;-68
2023/11/23 05:39:21;;;;;;;1.77;1.40;;;20.40;57.50;;;;;;5012631;28;20176;-66
2023/11/23 05:41:47;;;;;;;1.70;1.50;;;20.40;57.50;;;;;;5013686;28;20168;-69
2023/11/23 05:44:13;;;;;;;1.87;1.50;;;20.50;57.50;;;;;;5013862;28;20306;-68
2023/11/23 05:46:38;;;;;;;1.50;1.40;;;20.40;57.50;;;;;;5014050;28;20196;-69
2023/11/23 05:49:05;;;;;;;2.60;1.37;;;20.40;57.50;;;;;;5014117;28;20185;-68
2023/11/23 05:51:31;;;;;;;1.67;1.57;;;20.50;57.60;;;;;;5013982;28;20779;-67
2023/11/23 05:53:57;;;;;;;1.87;1.67;;;20.40;58.00;;;;;;5013761;28;20408;-68
2023/11/23 05:56:23;;;;;;;1.73;1.47;;;20.50;57.60;;;;;;5013841;28;20431;-68
2023/11/23 05:58:48;;;;;;;3.07;2.30;;;20.50;57.60;;;;;;5013366;28;20462;-69
2023/11/23 06:01:14;;;;;;;1.70;1.60;;;20.50;57.60;;;;;;5013511;28;20179;-68
2023/11/23 06:03:40;;;;;;;2.13;1.60;;;20.40;57.50;;;;;;5013710;28;20426;-69
2023/11/23 06:06:06;;;;;;;1.80;1.47;;;20.40;57.50;;;;;;5013498;28;20196;-68
2023/11/23 06:08:34;;;;;;;4.23;1.60;;;20.40;57.50;;;;;;5013385;28;20442;-68
2023/11/23 06:11:00;;;;;;;1.70;1.60;;;20.40;57.50;;;;;;5012438;28;20768;-67
2023/11/23 06:13:25;;;;;;;2.10;1.50;;;20.40;57.50;;;;;;5013313;28;20411;-69
2023/11/23 06:15:51;;;;;;;1.43;1.30;;;20.40;57.50;;;;;;5013189;28;20187;-69
2023/11/23 06:18:17;;;;;;;1.70;1.33;;;20.40;57.50;;;;;;5012969;28;20228;-69
2023/11/23 06:20:43;;;;;;;1.73;1.63;;;20.40;58.00;;;;;;5012839;28;20211;-68
2023/11/23 06:23:09;;;;;;;2.07;1.80;;;20.40;57.50;;;;;;5012935;28;20164;-68
2023/11/23 06:25:35;;;;;;;2.00;1.80;;;20.40;57.50;;;;;;5012501;28;20440;-68
2023/11/23 06:28:00;;;;;;;2.00;1.50;;;20.40;57.50;;;;;;5011961;28;20504;-69
2023/11/23 06:30:26;;;;;;;1.73;1.60;;;20.40;57.50;;;;;;5012043;28;20230;-69
2023/11/23 06:32:52;;;;;;;1.73;1.40;;;20.40;57.50;;;;;;5012034;28;20666;-68
2023/11/23 06:35:18;;;;;;;1.70;1.37;;;20.40;57.50;;;;;;5011776;28;20585;-67
2023/11/23 06:37:44;;;;;;;1.70;1.50;;;20.40;57.50;;;;;;5011578;28;20514;-69
2023/11/23 06:40:10;;;;;;;1.90;1.70;;;20.40;57.50;;;;;;5011822;28;20411;-68
2023/11/23 06:42:36;;;;;;;2.37;2.00;;;20.40;57.50;;;;;;5011533;28;20191;-69
2023/11/23 06:45:02;;;;;;;1.53;1.37;;;20.40;57.50;;;;;;5011452;28;20423;-70
2023/11/23 06:47:28;;;;;;;1.40;1.30;;;20.40;57.50;;;;;;5011279;28;20204;-68
2023/11/23 06:49:54;;;;;;;2.00;1.40;;;20.40;57.50;;;;;;5011771;28;20883;-68
2023/11/23 06:52:20;;;;;;;2.30;2.10;;;20.40;57.50;;;;;;5011380;28;20415;-69
2023/11/23 06:54:46;;;;;;;1.40;1.27;;;20.50;57.60;;;;;;5011325;28;20419;-68
2023/11/23 06:57:12;;;;;;;1.43;1.30;;;20.50;57.60;;;;;;5011280;28;20199;-68
2023/11/23 06:59:37;;;;;;;1.70;1.60;;;20.40;57.50;;;;;;5011285;28;20192;-68
2023/11/23 07:02:04;;;;;;;2.37;1.93;;;20.40;57.50;;;;;;5011188;28;20172;-69
2023/11/23 07:04:30;;;;;;;1.63;1.53;;;20.50;57.60;;;;;;5011052;28;20180;-69
2023/11/23 07:06:56;;;;;;;1.70;1.60;;;20.50;57.60;;;;;;5011291;28;20988;-69
2023/11/23 07:09:22;;;;;;;1.73;1.53;;;20.50;57.50;;;;;;5010973;28;20407;-68
2023/11/23 07:11:49;;;;;;;1.33;1.20;;;20.50;57.50;;;;;;5011057;28;20176;-69
2023/11/23 07:14:15;;;;;;;2.20;1.70;;;20.50;57.60;;;;;;5010991;28;20168;-69
2023/11/23 07:16:41;;;;;;;1.93;1.40;;;20.50;57.50;;;;;;5010897;28;20438;-69
2023/11/23 07:19:06;;;;;;;1.53;1.20;;;20.50;57.60;;;;;;5010847;28;20179;-68
2023/11/23 07:21:32;;;;;;;1.60;1.43;;;20.50;57.50;;;;;;5010716;28;20188;-69
2023/11/23 07:23:57;;;;;;;1.60;1.47;;;20.50;57.50;;;;;;5010804;28;20545;-67
2023/11/23 07:26:24;;;;;;;1.87;1.40;;;20.50;57.50;;;;;;5010743;28;20192;-69
2023/11/23 07:28:49;;;;;;;1.50;1.33;;;20.50;57.50;;;;;;5010752;28;20179;-68
2023/11/23 07:31:15;;;;;;;1.47;1.37;;;20.50;57.50;;;;;;5020616;28;20921;-68
2023/11/23 07:33:40;;;;;;;1.73;1.33;;;20.50;57.50;;;;;;5030611;28;20171;-68
2023/11/23 07:36:06;;;;;;;1.73;1.60;;;20.50;57.50;;;;;;5030516;28;20684;-69
2023/11/23 07:38:32;;;;;;;1.23;1.03;;;20.60;57.50;;;;;;5030192;28;20214;-69
2023/11/23 07:41:01;;;;;;;1.53;1.10;;;20.50;57.50;;;;;;5030211;28;20418;-68
2023/11/23 07:43:26;;;;;;;1.87;1.00;;;20.60;57.50;;;;;;5030181;28;20168;-69
2023/11/23 07:45:52;;;;;;;1.73;1.27;;;20.60;57.50;;;;;;5030090;28;21042;-67
2023/11/23 07:48:18;;;;;;;1.50;1.40;;;20.50;57.50;;;;;;5030119;28;20195;-68
2023/11/23 07:50:44;;;;;;;1.30;1.20;;;20.60;57.50;;;;;;5029997;28;20263;-68
2023/11/23 07:53:10;;;;;;;1.60;1.40;;;20.60;57.50;;;;;;5030277;28;20548;-68
2023/11/23 07:55:36;;;;;;;1.77;1.60;;;20.60;57.50;;;;;;5030514;28;20248;-68
2023/11/23 07:58:02;;;;;;;1.37;1.27;;;20.60;57.50;;;;;;5029731;28;20207;-66
2023/11/23 08:00:28;;;;;;;1.70;1.30;;;20.60;57.50;;;;;;5029941;28;20532;-69
2023/11/23 08:02:54;;;;;;;1.93;1.40;;;20.60;57.50;;;;;;5029957;28;20180;-69
2023/11/23 08:05:20;;;;;;;2.30;2.10;;;20.60;57.50;;;;;;5029906;28;20545;-69
2023/11/23 08:07:47;;;;;;;1.90;1.60;;;20.60;57.40;;;;;;5029900;28;20465;-68
2023/11/23 08:10:15;;;;;;;2.30;1.77;;;20.60;57.40;;;;;;5030045;28;20164;-67
2023/11/23 08:12:42;;;;;;;2.80;2.20;;;20.50;57.30;;;;;;5029845;28;20410;-69
2023/11/23 08:15:09;;;;;;;3.40;2.97;;;20.50;57.20;;;;;;5029991;28;20409;-69
2023/11/23 08:17:36;;;;;;;4.30;3.40;;;20.50;57.10;;;;;;5029798;28;20426;-69
2023/11/23 08:20:06;;;;;;;4.50;3.20;;;20.50;57.00;;;;;;5029957;28;20453;-69
2023/11/23 08:22:32;;;;;;;3.60;3.30;;;20.60;57.00;;;;;;5030338;28;21266;-68
2023/11/23 08:24:57;;;;;;;4.93;2.97;;;20.50;56.80;;;;;;5030210;28;20661;-68
2023/11/23 08:27:24;;;;;;;3.73;3.00;;;20.50;56.60;;;;;;5029646;28;20207;-68
2023/11/23 08:29:50;;;;;;;3.50;2.80;;;20.50;56.60;;;;;;5012101;28;20179;-67
2023/11/23 08:32:15;;;;;;;3.77;2.80;;;20.50;56.50;;;;;;5029741;28;20754;-67
2023/11/23 08:34:41;;;;;;;3.33;3.00;;;20.50;56.40;;;;;;5033500;28;20437;-69
2023/11/23 08:37:07;;;;;;;3.37;2.80;;;20.50;56.50;;;;;;5033693;28;20674;-68
2023/11/23 08:39:33;;;;;;;2.90;2.60;;;20.50;56.40;;;;;;5033513;28;20418;-68
2023/11/23 08:41:59;;;;;;;3.20;2.90;;;20.50;56.50;;;;;;5033707;28;20175;-69
2023/11/23 08:44:25;;;;;;;3.57;3.27;;;20.50;56.50;;;;;;5033488;28;20427;-68
2023/11/23 08:46:50;;;;;;;3.70;3.00;;;20.50;56.40;;;;;;5033536;28;20207;-69
2023/11/23 08:49:16;;;;;;;3.30;2.93;;;20.50;56.40;;;;;;5033664;28;20172;-69
2023/11/23 08:51:42;;;;;;;3.20;2.90;;;20.50;56.30;;;;;;5033558;28;20219;-69
2023/11/23 08:54:10;;;;;;;4.10;3.13;;;20.50;56.30;;;;;;5033787;28;20418;-69
2023/11/23 08:56:36;;;;;;;3.00;2.70;;;20.40;56.20;;;;;;5033575;28;20184;-68
2023/11/23 08:59:02;;;;;;;2.73;2.53;;;20.40;56.20;;;;;;5033343;28;20532;-69
2023/11/23 09:01:28;;;;;;;5.20;2.57;;;20.40;56.20;;;;;;5033428;28;20556;-69
2023/11/23 09:03:54;;;;;;;3.80;2.73;;;20.40;56.20;;;;;;5033499;28;20555;-68
2023/11/23 09:06:20;;;;;;;4.30;2.63;;;20.40;56.20;;;;;;5036667;28;20520;-70
2023/11/23 09:08:47;;;;;;;2.90;2.53;;;20.40;56.20;;;;;;5053183;28;20437;-68
2023/11/23 09:11:12;;;;;;;3.03;2.50;;;20.40;56.10;;;;;;5053584;28;20789;-69
2023/11/23 09:13:38;;;;;;;2.77;2.30;;;20.40;56.10;;;;;;5053248;28;20414;-68
2023/11/23 09:16:04;;;;;;;2.60;2.40;;;20.40;56.20;;;;;;5052823;28;20533;-69
2023/11/23 09:18:30;;;;;;;2.50;2.30;;;20.40;56.10;;;;;;5052978;28;20191;-69
2023/11/23 09:20:56;;;;;;;2.47;2.27;;;20.40;56.20;;;;;;5053014;28;21078;-67
2023/11/23 09:23:22;;;;;;;4.10;2.30;;;20.40;56.20;;;;;;5052821;28;20451;-68
2023/11/23 09:25:47;;;;;;;2.17;1.90;;;20.40;56.20;;;;;;5052935;28;20183;-69
2023/11/23 09:28:14;;;;;;;3.93;2.37;;;20.40;56.10;;;;;;5052765;28;20291;-69
2023/11/23 09:30:41;;;;;;;2.60;2.13;;;20.40;56.10;;;;;;5052716;28;20544;-69
2023/11/23 09:33:09;;;;;;;2.00;1.80;;;20.40;56.10;;;;;;5052690;28;20417;-69
2023/11/23 09:35:38;;;;;;;2.27;2.07;;;20.40;56.10;;;;;;5052610;28;20410;-69
2023/11/23 09:38:07;;;;;;;3.03;1.90;;;20.40;56.10;;;;;;5052420;28;20659;-68
2023/11/23 09:40:33;;;;;;;2.23;1.77;;;20.40;56.20;;;;;;5052414;28;20943;-67
2023/11/23 09:42:58;;;;;;;3.03;2.00;;;20.40;56.30;;;;;;5052614;28;20547;-67
2023/11/23 09:45:24;;;;;;;2.93;1.90;;;20.40;56.30;;;;;;5051071;28;20410;-69
2023/11/23 09:47:51;;;;;;;2.33;1.60;;;20.40;56.30;;;;;;5052426;28;20203;-69
2023/11/23 09:50:17;;;;;;;2.43;2.13;;;20.40;56.40;;;;;;5052416;28;20416;-69
2023/11/23 09:52:44;;;;;;;3.07;2.17;;;20.40;56.40;;;;;;5052409;28;20409;-68
2023/11/23 09:55:10;;;;;;;2.40;1.97;;;20.40;56.40;;;;;;5052242;28;20405;-69
2023/11/23 09:57:37;;;;;;;1.83;1.57;;;20.40;56.50;;;;;;5052054;28;20437;-70
2023/11/23 10:00:09;;;;;;;1.77;1.63;;;20.40;57.10;;;;;;5052533;28;20212;-68
2023/11/23 10:02:36;;;;;;;1.93;1.67;;;20.50;56.60;;;;;;5034243;28;20513;-66
2023/11/23 10:05:13;;;;;;;1.60;1.50;;;20.50;57.30;;;;;;5052064;28;20440;-70
2023/11/23 10:07:40;;;;;;;1.70;1.57;;;20.50;56.70;;;;;;5051926;28;20547;-70
2023/11/23 10:10:06;;;;;;;3.83;1.50;;;20.50;56.80;;;;;;5052461;28;20417;-69
2023/11/23 10:12:35;;;;;;;2.10;1.87;;;20.50;56.80;;;;;;5052480;28;20826;-69
2023/11/23 10:15:01;;;;;;;2.43;1.90;;;20.50;56.80;;;;;;5051969;28;20492;-70
2023/11/23 10:17:27;;;;;;;3.40;1.87;;;20.50;56.80;;;;;;5052164;28;20436;-70
2023/11/23 10:19:52;;;;;;;2.10;1.70;;;20.50;56.90;;;;;;5051809;28;20790;-67
2023/11/23 10:22:18;;;;;;;2.63;1.87;;;20.50;56.90;;;;;;5052063;28;20543;-69
2023/11/23 10:24:48;;;;;;;2.47;2.03;;;20.50;56.90;;;;;;5051782;28;20175;-67
2023/11/23 10:27:16;;;;;;;2.40;1.60;;;20.50;56.90;;;;;;5051590;28;20400;-68
2023/11/23 10:29:42;;;;;;;1.60;1.43;;;20.50;56.90;;;;;;5052060;28;20417;-68
2023/11/23 10:32:09;;;;;;;2.53;1.50;;;20.60;57.50;;;;;;5051624;28;20405;-67
2023/11/23 10:34:40;;;;;;;1.50;1.40;;;20.60;56.90;;;;;;5051515;28;20179;-68
2023/11/23 10:37:06;;;;;;;1.93;1.83;;;20.60;56.90;;;;;;5051440;28;20515;-69
2023/11/23 10:39:33;;;;;;;1.67;1.47;;;20.60;57.00;;;;;;5051328;28;20449;-68
2023/11/23 10:41:59;;;;;;;1.83;1.73;;;20.60;56.90;;;;;;5051370;28;20420;-69
2023/11/23 10:44:29;;;;;;;1.63;1.30;;;20.60;56.90;;;;;;5051360;28;20418;-69
2023/11/23 10:46:58;;;;;;;1.40;1.30;;;20.60;56.90;;;;;;5051175;28;20468;-68
2023/11/23 10:49:26;;;;;;;1.60;1.30;;;20.60;56.90;;;;;;5051144;28;20397;-67
2023/11/23 10:51:53;;;;;;;1.70;1.60;;;20.60;56.90;;;;;;5050905;28;20920;-70
2023/11/23 10:54:19;;;;;;;2.50;1.90;;;20.60;57.50;;;;;;5051057;28;20413;-67
2023/11/23 10:56:46;;;;;;;1.33;1.23;;;20.60;56.90;;;;;;5050387;28;20425;-66
2023/11/23 10:59:20;;;;;;;1.57;1.40;;;20.70;57.00;;;;;;5051160;28;20192;-69
2023/11/23 11:01:47;;;;;;;1.97;1.77;;;20.60;57.00;;;;;;5051050;28;20382;-68
2023/11/23 11:04:13;;;;;;;2.20;1.53;;;20.70;57.00;;;;;;5051123;28;20986;-69
2023/11/23 11:06:40;;;;;;;2.20;1.40;;;20.60;56.90;;;;;;5050831;28;20596;-69
2023/11/23 11:09:16;;;;;;;2.00;1.60;;;20.60;56.90;;;;;;5050672;28;20178;-68
2023/11/23 11:11:45;;;;;;;2.00;1.73;;;20.60;56.90;;;;;;5050726;28;20968;-69
2023/11/23 11:14:16;;;;;;;1.60;1.20;;;20.70;57.00;;;;;;5050678;28;20401;-70
2023/11/23 11:16:42;;;;;;;2.47;1.50;;;20.60;56.90;;;;;;5046961;28;20465;-69
2023/11/23 11:19:11;;;;;;;2.20;1.53;;;20.60;56.80;;;;;;5040180;28;20464;-69
2023/11/23 11:21:44;;;;;;;1.53;1.43;;;20.70;56.90;;;;;;5030884;28;20418;-65
2023/11/23 11:24:20;;;;;;;1.50;1.33;;;20.70;56.90;;;;;;5030982;28;20402;-68
2023/11/23 11:26:49;;;;;;;2.70;1.87;;;20.70;56.90;;;;;;5030749;28;20465;-68
2023/11/23 11:29:18;;;;;;;1.97;1.70;;;20.70;56.90;;;;;;5031542;28;20449;-69
2023/11/23 11:31:48;;;;;;;1.90;1.47;;;20.70;56.90;;;;;;5030852;28;20464;-69
2023/11/23 11:34:21;;;;;;;1.60;1.33;;;20.70;56.90;;;;;;5030957;28;20418;-69
2023/11/23 11:37:03;;;;;;;2.00;1.80;;;20.70;56.90;;;;;;5039502;28;20433;-69
2023/11/23 11:39:36;;;;;;;1.40;1.30;;;20.70;57.00;;;;;;5050460;28;20490;-67
2023/11/23 11:42:03;;;;;;;2.33;1.80;;;20.70;56.90;;;;;;5050354;28;20467;-69
2023/11/23 11:44:33;;;;;;;1.53;1.40;;;20.70;56.90;;;;;;5050286;28;20524;-70
2023/11/23 11:47:00;;;;;;;2.20;1.50;;;20.70;56.90;;;;;;5046712;28;20461;-69
2023/11/23 11:49:26;;;;;;;1.40;1.30;;;20.70;56.90;;;;;;5030272;28;20417;-69
2023/11/23 11:51:52;;;;;;;1.50;1.40;;;20.70;56.90;;;;;;5030555;28;20501;-69
2023/11/23 11:54:20;;;;;;;1.93;1.30;;;20.70;56.90;;;;;;5036891;28;20521;-68
2023/11/23 11:56:47;;;;;;;1.27;1.10;;;20.70;56.90;;;;;;5030660;28;20692;-68
2023/11/23 11:59:13;;;;;;;1.40;1.10;;;20.70;56.90;;;;;;5030506;28;20430;-69
2023/11/23 12:01:38;;;;;;;2.07;1.33;;;20.70;56.90;;;;;;5029922;28;20419;-68
2023/11/23 12:04:04;;;;;;;1.40;1.23;;;20.80;56.90;;;;;;5012444;28;20219;-68
2023/11/23 12:06:30;;;;;;;1.60;1.50;;;20.70;56.90;;;;;;5029862;28;20203;-69
2023/11/23 12:08:57;;;;;;;1.90;1.70;;;20.80;57.00;;;;;;5032661;28;20190;-68
2023/11/23 12:11:28;;;;;;;1.70;1.40;;;20.80;56.90;;;;;;5034586;28;20175;-69
2023/11/23 12:13:55;;;;;;;1.97;1.43;;;20.80;56.90;;;;;;5034211;28;20422;-67
2023/11/23 12:16:21;;;;;;;2.60;1.73;;;20.80;56.90;;;;;;5034407;28;20413;-69
2023/11/23 12:18:48;;;;;;;1.40;1.30;;;20.80;57.50;;;;;;5033847;28;20457;-69
2023/11/23 12:21:15;;;;;;;1.87;1.40;;;20.80;56.90;;;;;;5036301;28;20437;-69
2023/11/23 12:23:45;;;;;;;2.47;1.50;;;20.80;56.90;;;;;;5036215;28;20419;-69
2023/11/23 12:26:12;;;;;;;1.40;1.10;;;20.80;56.90;;;;;;5034527;28;20984;-67
2023/11/23 12:28:38;;;;;;;1.60;1.50;;;20.80;56.90;;;;;;5034663;28;20437;-68
2023/11/23 12:31:04;;;;;;;2.37;1.70;;;20.80;56.90;;;;;;5035785;28;20525;-69
2023/11/23 12:33:30;;;;;;;1.77;1.50;;;20.80;56.80;;;;;;5035473;28;20557;-68
2023/11/23 12:35:57;;;;;;;1.47;1.30;;;20.80;56.90;;;;;;5036689;28;20826;-69
2023/11/23 12:38:23;;;;;;;2.20;2.00;;;20.80;56.80;;;;;;5034639;28;20434;-69
2023/11/23 12:40:49;;;;;;;2.33;1.30;;;20.80;57.40;;;;;;5016749;28;20402;-68
2023/11/23 12:43:15;;;;;;;1.87;1.37;;;20.80;56.80;;;;;;5034645;28;20175;-70